sensor_id;sensor_type;location;lat;lon;timestamp;P1;durP1;ratioP1;P2;durP2;ratioP2
75061;SDS011;63641;46.526;24.612;2023-01-15T00:01:56;58.67;;;38.08;;
75061;SDS011;63641;46.526;24.612;2023-01-15T00:04:23;62.65;;;39.22;;
75061;SDS011;63641;46.526;24.612;2023-01-15T00:06:50;56.83;;;36.58;;
75061;SDS011;63641;46.526;24.612;2023-01-15T00:09:17;57.08;;;38.13;;
75061;SDS011;63641;46.526;24.612;2023-01-15T00:11:44;63.45;;;39.60;;
75061;SDS011;63641;46.526;24.612;2023-01-15T00:14:10;52.85;;;37.45;;
75061;SDS011;63641;46.526;24.612;2023-01-15T00:16:37;50.72;;;34.33;;
75061;SDS011;63641;46.526;24.612;2023-01-15T00:19:06;46.63;;;32.42;;
75061;SDS011;63641;46.526;24.612;2023-01-15T00:21:37;49.67;;;32.70;;
75061;SDS011;63641;46.526;24.612;2023-01-15T00:24:04;51.75;;;33.55;;
75061;SDS011;63641;46.526;24.612;2023-01-15T00:26:50;47.42;;;31.58;;
75061;SDS011;63641;46.526;24.612;2023-01-15T00:29:35;47.83;;;31.17;;
75061;SDS011;63641;46.526;24.612;2023-01-15T00:32:03;48.25;;;33.03;;
75061;SDS011;63641;46.526;24.612;2023-01-15T00:34:31;63.42;;;39.60;;
75061;SDS011;63641;46.526;24.612;2023-01-15T00:36:59;55.17;;;37.75;;
75061;SDS011;63641;46.526;24.612;2023-01-15T00:39:26;57.03;;;35.63;;
75061;SDS011;63641;46.526;24.612;2023-01-15T00:41:55;53.22;;;34.60;;
75061;SDS011;63641;46.526;24.612;2023-01-15T00:44:22;46.53;;;33.40;;
75061;SDS011;63641;46.526;24.612;2023-01-15T00:46:49;45.42;;;30.08;;
75061;SDS011;63641;46.526;24.612;2023-01-15T00:49:16;40.55;;;29.88;;
75061;SDS011;63641;46.526;24.612;2023-01-15T00:51:43;43.92;;;30.35;;
75061;SDS011;63641;46.526;24.612;2023-01-15T00:54:10;50.92;;;34.65;;
75061;SDS011;63641;46.526;24.612;2023-01-15T00:56:36;50.97;;;34.35;;
75061;SDS011;63641;46.526;24.612;2023-01-15T00:59:05;47.47;;;32.88;;
75061;SDS011;63641;46.526;24.612;2023-01-15T01:01:32;55.25;;;35.75;;
75061;SDS011;63641;46.526;24.612;2023-01-15T01:03:59;70.70;;;44.88;;
75061;SDS011;63641;46.526;24.612;2023-01-15T01:06:26;75.22;;;46.42;;
75061;SDS011;63641;46.526;24.612;2023-01-15T01:08:54;69.05;;;42.05;;
75061;SDS011;63641;46.526;24.612;2023-01-15T01:11:22;74.55;;;44.88;;
75061;SDS011;63641;46.526;24.612;2023-01-15T01:13:55;66.82;;;40.28;;
75061;SDS011;63641;46.526;24.612;2023-01-15T01:16:23;71.63;;;43.35;;
75061;SDS011;63641;46.526;24.612;2023-01-15T01:19:13;91.68;;;50.78;;
75061;SDS011;63641;46.526;24.612;2023-01-15T01:21:41;80.90;;;48.67;;
75061;SDS011;63641;46.526;24.612;2023-01-15T01:24:10;81.57;;;49.33;;
75061;SDS011;63641;46.526;24.612;2023-01-15T01:26:38;75.82;;;47.75;;
75061;SDS011;63641;46.526;24.612;2023-01-15T01:29:05;85.13;;;49.95;;
75061;SDS011;63641;46.526;24.612;2023-01-15T01:31:32;85.10;;;49.67;;
75061;SDS011;63641;46.526;24.612;2023-01-15T01:33:58;80.03;;;49.95;;
75061;SDS011;63641;46.526;24.612;2023-01-15T01:36:27;83.32;;;49.78;;
75061;SDS011;63641;46.526;24.612;2023-01-15T01:38:57;70.90;;;44.80;;
75061;SDS011;63641;46.526;24.612;2023-01-15T01:41:25;61.05;;;44.55;;
75061;SDS011;63641;46.526;24.612;2023-01-15T01:43:54;72.32;;;45.92;;
75061;SDS011;63641;46.526;24.612;2023-01-15T01:46:27;71.85;;;45.03;;
75061;SDS011;63641;46.526;24.612;2023-01-15T01:48:59;66.78;;;43.83;;
75061;SDS011;63641;46.526;24.612;2023-01-15T01:51:33;66.93;;;42.55;;
75061;SDS011;63641;46.526;24.612;2023-01-15T01:54:05;62.58;;;41.95;;
75061;SDS011;63641;46.526;24.612;2023-01-15T01:56:34;59.78;;;39.15;;
75061;SDS011;63641;46.526;24.612;2023-01-15T01:59:01;57.00;;;39.10;;
75061;SDS011;63641;46.526;24.612;2023-01-15T02:01:30;56.47;;;39.38;;
75061;SDS011;63641;46.526;24.612;2023-01-15T02:03:58;62.15;;;40.15;;
75061;SDS011;63641;46.526;24.612;2023-01-15T02:06:25;56.95;;;38.35;;
75061;SDS011;63641;46.526;24.612;2023-01-15T02:08:54;62.38;;;38.22;;
75061;SDS011;63641;46.526;24.612;2023-01-15T02:11:21;57.88;;;39.20;;
75061;SDS011;63641;46.526;24.612;2023-01-15T02:16:26;53.30;;;36.13;;
75061;SDS011;63641;46.526;24.612;2023-01-15T02:19:05;50.78;;;37.53;;
75061;SDS011;63641;46.526;24.612;2023-01-15T02:24:59;58.85;;;37.97;;
75061;SDS011;63641;46.526;24.612;2023-01-15T02:27:36;59.33;;;38.60;;
75061;SDS011;63641;46.526;24.612;2023-01-15T02:30:11;56.25;;;36.20;;
75061;SDS011;63641;46.526;24.612;2023-01-15T02:32:44;52.90;;;35.85;;
75061;SDS011;63641;46.526;24.612;2023-01-15T02:38:03;49.97;;;34.42;;
75061;SDS011;63641;46.526;24.612;2023-01-15T02:40:34;52.80;;;35.55;;
75061;SDS011;63641;46.526;24.612;2023-01-15T02:43:02;56.60;;;35.78;;
75061;SDS011;63641;46.526;24.612;2023-01-15T02:45:32;55.03;;;38.33;;
75061;SDS011;63641;46.526;24.612;2023-01-15T02:48:04;48.50;;;34.50;;
75061;SDS011;63641;46.526;24.612;2023-01-15T02:50:37;52.23;;;36.77;;
75061;SDS011;63641;46.526;24.612;2023-01-15T02:53:08;49.95;;;35.67;;
75061;SDS011;63641;46.526;24.612;2023-01-15T02:55:40;51.97;;;35.40;;
75061;SDS011;63641;46.526;24.612;2023-01-15T02:58:11;50.78;;;35.42;;
75061;SDS011;63641;46.526;24.612;2023-01-15T03:00:42;52.53;;;34.90;;
75061;SDS011;63641;46.526;24.612;2023-01-15T03:05:54;47.25;;;32.95;;
75061;SDS011;63641;46.526;24.612;2023-01-15T03:08:27;52.78;;;33.60;;
75061;SDS011;63641;46.526;24.612;2023-01-15T03:19:03;53.20;;;38.22;;
75061;SDS011;63641;46.526;24.612;2023-01-15T03:24:43;55.67;;;39.70;;
75061;SDS011;63641;46.526;24.612;2023-01-15T03:27:12;59.05;;;40.72;;
75061;SDS011;63641;46.526;24.612;2023-01-15T03:29:41;62.20;;;41.20;;
75061;SDS011;63641;46.526;24.612;2023-01-15T03:32:13;57.10;;;38.05;;
75061;SDS011;63641;46.526;24.612;2023-01-15T03:34:43;57.65;;;40.53;;
75061;SDS011;63641;46.526;24.612;2023-01-15T03:37:13;56.83;;;39.40;;
75061;SDS011;63641;46.526;24.612;2023-01-15T03:39:40;55.92;;;39.42;;
75061;SDS011;63641;46.526;24.612;2023-01-15T03:45:17;47.72;;;33.50;;
75061;SDS011;63641;46.526;24.612;2023-01-15T03:48:00;63.65;;;42.97;;
75061;SDS011;63641;46.526;24.612;2023-01-15T03:50:36;64.65;;;43.00;;
75061;SDS011;63641;46.526;24.612;2023-01-15T03:53:29;65.55;;;42.17;;
75061;SDS011;63641;46.526;24.612;2023-01-15T03:59:08;55.40;;;38.70;;
75061;SDS011;63641;46.526;24.612;2023-01-15T04:01:42;53.47;;;37.80;;
75061;SDS011;63641;46.526;24.612;2023-01-15T04:04:11;60.95;;;37.83;;
75061;SDS011;63641;46.526;24.612;2023-01-15T04:06:39;57.83;;;38.63;;
75061;SDS011;63641;46.526;24.612;2023-01-15T04:09:08;52.90;;;37.47;;
75061;SDS011;63641;46.526;24.612;2023-01-15T04:11:37;47.65;;;35.75;;
75061;SDS011;63641;46.526;24.612;2023-01-15T04:14:04;57.38;;;37.70;;
75061;SDS011;63641;46.526;24.612;2023-01-15T04:16:32;67.50;;;44.75;;
75061;SDS011;63641;46.526;24.612;2023-01-15T04:19:00;69.90;;;44.92;;
75061;SDS011;63641;46.526;24.612;2023-01-15T04:21:27;64.68;;;44.63;;
75061;SDS011;63641;46.526;24.612;2023-01-15T04:23:53;60.47;;;40.70;;
75061;SDS011;63641;46.526;24.612;2023-01-15T04:26:20;62.13;;;42.28;;
75061;SDS011;63641;46.526;24.612;2023-01-15T04:28:47;54.15;;;36.65;;
75061;SDS011;63641;46.526;24.612;2023-01-15T04:31:14;50.50;;;36.85;;
75061;SDS011;63641;46.526;24.612;2023-01-15T04:33:42;67.35;;;43.15;;
75061;SDS011;63641;46.526;24.612;2023-01-15T04:36:08;56.13;;;37.72;;
75061;SDS011;63641;46.526;24.612;2023-01-15T04:38:36;51.78;;;36.20;;
75061;SDS011;63641;46.526;24.612;2023-01-15T04:41:03;55.50;;;38.55;;
75061;SDS011;63641;46.526;24.612;2023-01-15T04:43:49;47.65;;;33.35;;
75061;SDS011;63641;46.526;24.612;2023-01-15T04:46:38;45.03;;;32.50;;
75061;SDS011;63641;46.526;24.612;2023-01-15T04:49:13;44.22;;;31.08;;
75061;SDS011;63641;46.526;24.612;2023-01-15T04:51:42;40.95;;;31.55;;
75061;SDS011;63641;46.526;24.612;2023-01-15T04:54:11;46.88;;;32.22;;
75061;SDS011;63641;46.526;24.612;2023-01-15T04:56:41;42.58;;;31.92;;
75061;SDS011;63641;46.526;24.612;2023-01-15T04:59:09;41.38;;;30.98;;
75061;SDS011;63641;46.526;24.612;2023-01-15T05:01:36;43.75;;;32.47;;
75061;SDS011;63641;46.526;24.612;2023-01-15T05:04:04;46.97;;;33.63;;
75061;SDS011;63641;46.526;24.612;2023-01-15T05:06:31;51.60;;;35.45;;
75061;SDS011;63641;46.526;24.612;2023-01-15T05:08:58;54.53;;;37.03;;
75061;SDS011;63641;46.526;24.612;2023-01-15T05:11:26;49.55;;;33.80;;
75061;SDS011;63641;46.526;24.612;2023-01-15T05:13:54;48.88;;;35.20;;
75061;SDS011;63641;46.526;24.612;2023-01-15T05:16:24;53.90;;;36.92;;
75061;SDS011;63641;46.526;24.612;2023-01-15T05:18:52;48.72;;;34.63;;
75061;SDS011;63641;46.526;24.612;2023-01-15T05:21:24;51.92;;;36.83;;
75061;SDS011;63641;46.526;24.612;2023-01-15T05:23:53;59.45;;;38.88;;
75061;SDS011;63641;46.526;24.612;2023-01-15T05:26:23;61.13;;;41.33;;
75061;SDS011;63641;46.526;24.612;2023-01-15T05:28:52;60.08;;;39.45;;
75061;SDS011;63641;46.526;24.612;2023-01-15T05:31:20;78.82;;;50.05;;
75061;SDS011;63641;46.526;24.612;2023-01-15T05:33:47;75.30;;;48.75;;
75061;SDS011;63641;46.526;24.612;2023-01-15T05:36:16;74.70;;;49.50;;
75061;SDS011;63641;46.526;24.612;2023-01-15T05:38:44;80.38;;;49.58;;
75061;SDS011;63641;46.526;24.612;2023-01-15T05:41:13;74.70;;;47.30;;
75061;SDS011;63641;46.526;24.612;2023-01-15T05:44:00;70.88;;;45.50;;
75061;SDS011;63641;46.526;24.612;2023-01-15T05:46:33;87.13;;;50.60;;
75061;SDS011;63641;46.526;24.612;2023-01-15T05:49:01;68.13;;;43.38;;
75061;SDS011;63641;46.526;24.612;2023-01-15T05:51:29;61.70;;;41.53;;
75061;SDS011;63641;46.526;24.612;2023-01-15T05:53:56;56.15;;;39.88;;
75061;SDS011;63641;46.526;24.612;2023-01-15T05:56:23;68.38;;;41.20;;
75061;SDS011;63641;46.526;24.612;2023-01-15T05:58:50;63.60;;;40.17;;
75061;SDS011;63641;46.526;24.612;2023-01-15T06:01:18;56.05;;;38.45;;
75061;SDS011;63641;46.526;24.612;2023-01-15T06:03:45;175.38;;;44.00;;
75061;SDS011;63641;46.526;24.612;2023-01-15T06:06:14;51.28;;;35.17;;
75061;SDS011;63641;46.526;24.612;2023-01-15T06:08:43;51.95;;;35.85;;
75061;SDS011;63641;46.526;24.612;2023-01-15T06:11:10;48.05;;;33.60;;
75061;SDS011;63641;46.526;24.612;2023-01-15T06:13:37;48.40;;;33.58;;
75061;SDS011;63641;46.526;24.612;2023-01-15T06:16:05;51.55;;;34.85;;
75061;SDS011;63641;46.526;24.612;2023-01-15T06:18:33;47.53;;;34.28;;
75061;SDS011;63641;46.526;24.612;2023-01-15T06:21:07;48.00;;;33.92;;
75061;SDS011;63641;46.526;24.612;2023-01-15T06:23:37;55.15;;;36.25;;
75061;SDS011;63641;46.526;24.612;2023-01-15T06:26:05;59.92;;;39.72;;
75061;SDS011;63641;46.526;24.612;2023-01-15T06:28:40;62.58;;;39.63;;
75061;SDS011;63641;46.526;24.612;2023-01-15T06:31:08;56.60;;;40.90;;
75061;SDS011;63641;46.526;24.612;2023-01-15T06:33:37;53.10;;;35.95;;
75061;SDS011;63641;46.526;24.612;2023-01-15T06:36:05;50.88;;;36.67;;
75061;SDS011;63641;46.526;24.612;2023-01-15T06:38:33;62.63;;;40.13;;
75061;SDS011;63641;46.526;24.612;2023-01-15T06:41:01;45.97;;;31.65;;
75061;SDS011;63641;46.526;24.612;2023-01-15T06:43:28;44.00;;;32.45;;
75061;SDS011;63641;46.526;24.612;2023-01-15T06:46:14;50.25;;;35.00;;
75061;SDS011;63641;46.526;24.612;2023-01-15T06:49:01;60.97;;;39.20;;
75061;SDS011;63641;46.526;24.612;2023-01-15T06:51:27;64.88;;;42.75;;
75061;SDS011;63641;46.526;24.612;2023-01-15T06:53:56;70.38;;;44.03;;
75061;SDS011;63641;46.526;24.612;2023-01-15T06:56:23;59.45;;;41.90;;
75061;SDS011;63641;46.526;24.612;2023-01-15T06:58:49;64.18;;;43.70;;
75061;SDS011;63641;46.526;24.612;2023-01-15T07:01:16;60.08;;;40.22;;
75061;SDS011;63641;46.526;24.612;2023-01-15T07:03:47;56.78;;;37.58;;
75061;SDS011;63641;46.526;24.612;2023-01-15T07:06:14;51.67;;;37.50;;
75061;SDS011;63641;46.526;24.612;2023-01-15T07:08:41;56.92;;;41.15;;
75061;SDS011;63641;46.526;24.612;2023-01-15T07:11:08;59.08;;;40.28;;
75061;SDS011;63641;46.526;24.612;2023-01-15T07:13:35;58.50;;;40.38;;
75061;SDS011;63641;46.526;24.612;2023-01-15T07:16:03;62.47;;;43.55;;
75061;SDS011;63641;46.526;24.612;2023-01-15T07:18:31;85.32;;;56.05;;
75061;SDS011;63641;46.526;24.612;2023-01-15T07:20:59;57.92;;;41.72;;
75061;SDS011;63641;46.526;24.612;2023-01-15T07:23:26;61.78;;;42.53;;
75061;SDS011;63641;46.526;24.612;2023-01-15T07:25:53;52.88;;;36.67;;
75061;SDS011;63641;46.526;24.612;2023-01-15T07:28:21;61.08;;;43.00;;
75061;SDS011;63641;46.526;24.612;2023-01-15T07:30:49;55.25;;;37.78;;
75061;SDS011;63641;46.526;24.612;2023-01-15T07:33:16;59.08;;;43.03;;
75061;SDS011;63641;46.526;24.612;2023-01-15T07:35:43;60.80;;;42.58;;
75061;SDS011;63641;46.526;24.612;2023-01-15T07:38:10;64.03;;;44.40;;
75061;SDS011;63641;46.526;24.612;2023-01-15T07:40:36;53.53;;;41.78;;
75061;SDS011;63641;46.526;24.612;2023-01-15T07:43:04;56.35;;;41.22;;
75061;SDS011;63641;46.526;24.612;2023-01-15T07:45:49;61.15;;;40.75;;
75061;SDS011;63641;46.526;24.612;2023-01-15T07:48:34;62.45;;;43.20;;
75061;SDS011;63641;46.526;24.612;2023-01-15T07:51:20;55.00;;;38.92;;
75061;SDS011;63641;46.526;24.612;2023-01-15T07:53:47;40.38;;;31.73;;
75061;SDS011;63641;46.526;24.612;2023-01-15T07:56:13;50.60;;;36.25;;
75061;SDS011;63641;46.526;24.612;2023-01-15T07:58:40;40.55;;;30.15;;
75061;SDS011;63641;46.526;24.612;2023-01-15T08:01:07;38.88;;;28.20;;
75061;SDS011;63641;46.526;24.612;2023-01-15T08:03:34;61.50;;;28.42;;
75061;SDS011;63641;46.526;24.612;2023-01-15T08:06:01;39.45;;;28.55;;
75061;SDS011;63641;46.526;24.612;2023-01-15T08:08:28;39.67;;;27.63;;
75061;SDS011;63641;46.526;24.612;2023-01-15T08:10:59;39.38;;;27.50;;
75061;SDS011;63641;46.526;24.612;2023-01-15T08:13:45;37.95;;;27.52;;
75061;SDS011;63641;46.526;24.612;2023-01-15T08:16:33;51.47;;;34.92;;
75061;SDS011;63641;46.526;24.612;2023-01-15T08:19:01;53.72;;;35.90;;
75061;SDS011;63641;46.526;24.612;2023-01-15T08:21:28;56.35;;;34.78;;
75061;SDS011;63641;46.526;24.612;2023-01-15T08:23:54;48.50;;;32.60;;
75061;SDS011;63641;46.526;24.612;2023-01-15T08:26:21;49.22;;;27.20;;
75061;SDS011;63641;46.526;24.612;2023-01-15T08:28:48;34.72;;;25.73;;
75061;SDS011;63641;46.526;24.612;2023-01-15T08:31:15;38.42;;;26.70;;
75061;SDS011;63641;46.526;24.612;2023-01-15T08:33:41;28.60;;;19.83;;
75061;SDS011;63641;46.526;24.612;2023-01-15T08:36:08;17.05;;;13.90;;
75061;SDS011;63641;46.526;24.612;2023-01-15T08:38:35;19.30;;;14.38;;
75061;SDS011;63641;46.526;24.612;2023-01-15T08:41:02;20.05;;;15.38;;
75061;SDS011;63641;46.526;24.612;2023-01-15T08:43:30;16.35;;;12.48;;
75061;SDS011;63641;46.526;24.612;2023-01-15T08:45:59;16.83;;;13.27;;
75061;SDS011;63641;46.526;24.612;2023-01-15T08:48:29;14.70;;;11.05;;
75061;SDS011;63641;46.526;24.612;2023-01-15T08:50:57;19.00;;;14.75;;
75061;SDS011;63641;46.526;24.612;2023-01-15T08:53:23;18.98;;;14.13;;
75061;SDS011;63641;46.526;24.612;2023-01-15T08:55:50;14.52;;;10.68;;
75061;SDS011;63641;46.526;24.612;2023-01-15T08:58:17;14.32;;;11.45;;
75061;SDS011;63641;46.526;24.612;2023-01-15T09:00:44;13.95;;;11.00;;
75061;SDS011;63641;46.526;24.612;2023-01-15T09:03:10;14.20;;;10.50;;
75061;SDS011;63641;46.526;24.612;2023-01-15T09:05:37;11.48;;;9.77;;
75061;SDS011;63641;46.526;24.612;2023-01-15T09:08:04;13.30;;;10.68;;
75061;SDS011;63641;46.526;24.612;2023-01-15T09:10:32;13.00;;;10.07;;
75061;SDS011;63641;46.526;24.612;2023-01-15T09:13:00;11.50;;;8.10;;
75061;SDS011;63641;46.526;24.612;2023-01-15T09:15:27;11.07;;;8.30;;
75061;SDS011;63641;46.526;24.612;2023-01-15T09:17:55;11.52;;;8.60;;
75061;SDS011;63641;46.526;24.612;2023-01-15T09:20:23;12.27;;;9.38;;
75061;SDS011;63641;46.526;24.612;2023-01-15T09:22:50;11.63;;;9.20;;
75061;SDS011;63641;46.526;24.612;2023-01-15T09:25:17;14.55;;;8.57;;
75061;SDS011;63641;46.526;24.612;2023-01-15T09:27:45;9.93;;;7.90;;
75061;SDS011;63641;46.526;24.612;2023-01-15T09:30:13;5.75;;;4.97;;
75061;SDS011;63641;46.526;24.612;2023-01-15T09:32:44;8.15;;;6.55;;
75061;SDS011;63641;46.526;24.612;2023-01-15T09:35:11;11.65;;;7.72;;
75061;SDS011;63641;46.526;24.612;2023-01-15T09:37:37;9.27;;;8.02;;
75061;SDS011;63641;46.526;24.612;2023-01-15T09:40:05;11.23;;;8.43;;
75061;SDS011;63641;46.526;24.612;2023-01-15T09:45:17;12.48;;;8.07;;
75061;SDS011;63641;46.526;24.612;2023-01-15T09:55:52;7.15;;;6.45;;
75061;SDS011;63641;46.526;24.612;2023-01-15T09:58:22;7.47;;;6.32;;
75061;SDS011;63641;46.526;24.612;2023-01-15T10:00:58;6.30;;;5.32;;
75061;SDS011;63641;46.526;24.612;2023-01-15T10:09:03;6.78;;;5.78;;
75061;SDS011;63641;46.526;24.612;2023-01-15T10:11:44;7.95;;;6.28;;
75061;SDS011;63641;46.526;24.612;2023-01-15T10:14:45;8.25;;;6.00;;
75061;SDS011;63641;46.526;24.612;2023-01-15T10:23:19;8.27;;;6.47;;
75061;SDS011;63641;46.526;24.612;2023-01-15T10:25:53;6.55;;;5.18;;
75061;SDS011;63641;46.526;24.612;2023-01-15T10:28:28;9.05;;;5.88;;
75061;SDS011;63641;46.526;24.612;2023-01-15T10:31:12;7.03;;;5.75;;
75061;SDS011;63641;46.526;24.612;2023-01-15T10:36:50;6.13;;;4.47;;
75061;SDS011;63641;46.526;24.612;2023-01-15T10:39:31;8.48;;;5.45;;
75061;SDS011;63641;46.526;24.612;2023-01-15T10:45:05;8.73;;;5.75;;
75061;SDS011;63641;46.526;24.612;2023-01-15T10:47:37;7.72;;;6.20;;
75061;SDS011;63641;46.526;24.612;2023-01-15T10:50:19;9.25;;;5.88;;
75061;SDS011;63641;46.526;24.612;2023-01-15T10:52:49;11.90;;;6.75;;
75061;SDS011;63641;46.526;24.612;2023-01-15T10:55:37;7.47;;;6.18;;
75061;SDS011;63641;46.526;24.612;2023-01-15T10:58:13;9.45;;;6.57;;
75061;SDS011;63641;46.526;24.612;2023-01-15T11:00:51;11.10;;;7.75;;
75061;SDS011;63641;46.526;24.612;2023-01-15T11:03:33;8.35;;;6.72;;
75061;SDS011;63641;46.526;24.612;2023-01-15T11:06:03;8.63;;;7.03;;
75061;SDS011;63641;46.526;24.612;2023-01-15T11:08:33;11.70;;;7.93;;
75061;SDS011;63641;46.526;24.612;2023-01-15T11:11:22;5.85;;;4.68;;
75061;SDS011;63641;46.526;24.612;2023-01-15T11:14:13;6.70;;;5.57;;
75061;SDS011;63641;46.526;24.612;2023-01-15T11:16:59;7.10;;;5.57;;
75061;SDS011;63641;46.526;24.612;2023-01-15T11:19:50;6.97;;;5.22;;
75061;SDS011;63641;46.526;24.612;2023-01-15T11:22:18;6.25;;;5.13;;
75061;SDS011;63641;46.526;24.612;2023-01-15T11:24:59;6.22;;;5.35;;
75061;SDS011;63641;46.526;24.612;2023-01-15T11:27:29;6.35;;;4.57;;
75061;SDS011;63641;46.526;24.612;2023-01-15T11:29:59;5.60;;;4.88;;
75061;SDS011;63641;46.526;24.612;2023-01-15T11:32:28;5.03;;;4.45;;
75061;SDS011;63641;46.526;24.612;2023-01-15T11:35:12;5.55;;;4.80;;
75061;SDS011;63641;46.526;24.612;2023-01-15T11:37:41;7.15;;;4.93;;
75061;SDS011;63641;46.526;24.612;2023-01-15T11:40:16;5.25;;;4.72;;
75061;SDS011;63641;46.526;24.612;2023-01-15T11:42:45;7.15;;;4.82;;
75061;SDS011;63641;46.526;24.612;2023-01-15T11:45:31;5.97;;;5.10;;
75061;SDS011;63641;46.526;24.612;2023-01-15T11:48:20;5.05;;;4.45;;
75061;SDS011;63641;46.526;24.612;2023-01-15T11:51:11;6.10;;;4.63;;
75061;SDS011;63641;46.526;24.612;2023-01-15T11:53:45;6.97;;;5.53;;
75061;SDS011;63641;46.526;24.612;2023-01-15T11:56:20;6.68;;;5.60;;
75061;SDS011;63641;46.526;24.612;2023-01-15T11:58:50;5.18;;;4.68;;
75061;SDS011;63641;46.526;24.612;2023-01-15T12:01:30;6.13;;;5.15;;
75061;SDS011;63641;46.526;24.612;2023-01-15T12:04:01;6.35;;;4.97;;
75061;SDS011;63641;46.526;24.612;2023-01-15T12:06:32;5.70;;;5.10;;
75061;SDS011;63641;46.526;24.612;2023-01-15T12:11:52;7.47;;;6.50;;
75061;SDS011;63641;46.526;24.612;2023-01-15T12:17:25;6.13;;;5.25;;
75061;SDS011;63641;46.526;24.612;2023-01-15T12:28:35;5.32;;;4.68;;
75061;SDS011;63641;46.526;24.612;2023-01-15T12:31:09;6.03;;;4.97;;
75061;SDS011;63641;46.526;24.612;2023-01-15T12:36:13;5.88;;;5.25;;
75061;SDS011;63641;46.526;24.612;2023-01-15T12:38:55;6.73;;;4.87;;
75061;SDS011;63641;46.526;24.612;2023-01-15T12:44:40;5.35;;;4.47;;
75061;SDS011;63641;46.526;24.612;2023-01-15T12:50:26;5.70;;;4.38;;
75061;SDS011;63641;46.526;24.612;2023-01-15T12:55:54;5.60;;;4.80;;
75061;SDS011;63641;46.526;24.612;2023-01-15T12:58:31;6.55;;;5.10;;
75061;SDS011;63641;46.526;24.612;2023-01-15T13:01:05;6.38;;;5.20;;
75061;SDS011;63641;46.526;24.612;2023-01-15T13:03:55;7.00;;;5.03;;
75061;SDS011;63641;46.526;24.612;2023-01-15T13:06:31;4.85;;;4.35;;
75061;SDS011;63641;46.526;24.612;2023-01-15T13:11:50;5.15;;;4.47;;
75061;SDS011;63641;46.526;24.612;2023-01-15T13:14:18;6.55;;;5.28;;
75061;SDS011;63641;46.526;24.612;2023-01-15T13:22:20;6.60;;;5.63;;
75061;SDS011;63641;46.526;24.612;2023-01-15T13:33:39;9.30;;;5.30;;
75061;SDS011;63641;46.526;24.612;2023-01-15T13:36:19;6.45;;;5.45;;
75061;SDS011;63641;46.526;24.612;2023-01-15T13:38:54;8.68;;;5.90;;
75061;SDS011;63641;46.526;24.612;2023-01-15T13:41:25;6.60;;;5.88;;
75061;SDS011;63641;46.526;24.612;2023-01-15T13:44:17;7.20;;;5.68;;
75061;SDS011;63641;46.526;24.612;2023-01-15T13:46:59;7.95;;;5.80;;
75061;SDS011;63641;46.526;24.612;2023-01-15T13:49:32;5.05;;;4.55;;
75061;SDS011;63641;46.526;24.612;2023-01-15T13:52:01;7.43;;;5.25;;
75061;SDS011;63641;46.526;24.612;2023-01-15T13:54:33;5.93;;;4.88;;
75061;SDS011;63641;46.526;24.612;2023-01-15T13:57:18;5.93;;;5.32;;
75061;SDS011;63641;46.526;24.612;2023-01-15T14:00:00;8.02;;;5.32;;
75061;SDS011;63641;46.526;24.612;2023-01-15T14:02:34;6.47;;;5.03;;
75061;SDS011;63641;46.526;24.612;2023-01-15T14:07:48;7.95;;;6.95;;
75061;SDS011;63641;46.526;24.612;2023-01-15T14:22:05;11.13;;;9.52;;
75061;SDS011;63641;46.526;24.612;2023-01-15T14:24:34;11.32;;;8.38;;
75061;SDS011;63641;46.526;24.612;2023-01-15T14:27:06;9.82;;;7.70;;
75061;SDS011;63641;46.526;24.612;2023-01-15T14:30:32;8.82;;;6.68;;
75061;SDS011;63641;46.526;24.612;2023-01-15T14:35:36;8.35;;;6.30;;
75061;SDS011;63641;46.526;24.612;2023-01-15T14:38:12;8.20;;;6.43;;
75061;SDS011;63641;46.526;24.612;2023-01-15T14:40:56;8.05;;;6.05;;
75061;SDS011;63641;46.526;24.612;2023-01-15T14:43:29;6.65;;;5.25;;
75061;SDS011;63641;46.526;24.612;2023-01-15T14:46:13;7.10;;;5.63;;
75061;SDS011;63641;46.526;24.612;2023-01-15T14:48:49;7.88;;;5.13;;
75061;SDS011;63641;46.526;24.612;2023-01-15T14:51:17;5.03;;;4.60;;
75061;SDS011;63641;46.526;24.612;2023-01-15T14:53:48;6.80;;;4.97;;
75061;SDS011;63641;46.526;24.612;2023-01-15T14:56:22;7.65;;;5.22;;
75061;SDS011;63641;46.526;24.612;2023-01-15T14:59:12;7.95;;;5.47;;
75061;SDS011;63641;46.526;24.612;2023-01-15T15:01:49;14.40;;;9.77;;
75061;SDS011;63641;46.526;24.612;2023-01-15T15:09:37;16.58;;;13.23;;
75061;SDS011;63641;46.526;24.612;2023-01-15T15:18:01;23.50;;;15.85;;
75061;SDS011;63641;46.526;24.612;2023-01-15T15:26:46;13.52;;;9.20;;
75061;SDS011;63641;46.526;24.612;2023-01-15T15:29:13;9.43;;;6.70;;
75061;SDS011;63641;46.526;24.612;2023-01-15T15:31:43;8.57;;;7.00;;
75061;SDS011;63641;46.526;24.612;2023-01-15T15:34:34;7.53;;;5.30;;
75061;SDS011;63641;46.526;24.612;2023-01-15T15:37:11;7.90;;;6.05;;
75061;SDS011;63641;46.526;24.612;2023-01-15T15:39:51;7.25;;;5.95;;
75061;SDS011;63641;46.526;24.612;2023-01-15T15:42:25;13.55;;;8.38;;
75061;SDS011;63641;46.526;24.612;2023-01-15T15:45:24;9.75;;;8.00;;
75061;SDS011;63641;46.526;24.612;2023-01-15T15:48:30;8.98;;;7.35;;
75061;SDS011;63641;46.526;24.612;2023-01-15T15:53:47;10.75;;;7.47;;
75061;SDS011;63641;46.526;24.612;2023-01-15T15:56:14;12.32;;;9.63;;
75061;SDS011;63641;46.526;24.612;2023-01-15T15:58:41;15.60;;;11.30;;
75061;SDS011;63641;46.526;24.612;2023-01-15T16:01:12;17.52;;;13.73;;
75061;SDS011;63641;46.526;24.612;2023-01-15T16:03:46;17.38;;;12.70;;
75061;SDS011;63641;46.526;24.612;2023-01-15T16:06:18;15.85;;;12.38;;
75061;SDS011;63641;46.526;24.612;2023-01-15T16:08:56;14.20;;;12.32;;
75061;SDS011;63641;46.526;24.612;2023-01-15T16:11:30;18.85;;;12.65;;
75061;SDS011;63641;46.526;24.612;2023-01-15T16:13:59;13.70;;;10.57;;
75061;SDS011;63641;46.526;24.612;2023-01-15T16:16:31;16.15;;;10.52;;
75061;SDS011;63641;46.526;24.612;2023-01-15T16:18:58;11.00;;;9.43;;
75061;SDS011;63641;46.526;24.612;2023-01-15T16:21:34;15.85;;;10.43;;
75061;SDS011;63641;46.526;24.612;2023-01-15T16:24:04;14.35;;;10.70;;
75061;SDS011;63641;46.526;24.612;2023-01-15T16:26:48;14.05;;;11.20;;
75061;SDS011;63641;46.526;24.612;2023-01-15T16:31:50;12.10;;;9.88;;
75061;SDS011;63641;46.526;24.612;2023-01-15T16:34:17;15.77;;;11.07;;
75061;SDS011;63641;46.526;24.612;2023-01-15T16:36:46;15.80;;;12.02;;
75061;SDS011;63641;46.526;24.612;2023-01-15T16:39:16;17.60;;;12.15;;
75061;SDS011;63641;46.526;24.612;2023-01-15T16:41:53;14.25;;;11.65;;
75061;SDS011;63641;46.526;24.612;2023-01-15T16:44:36;18.83;;;12.98;;
75061;SDS011;63641;46.526;24.612;2023-01-15T16:47:16;14.10;;;10.65;;
75061;SDS011;63641;46.526;24.612;2023-01-15T16:50:40;13.43;;;11.60;;
75061;SDS011;63641;46.526;24.612;2023-01-15T16:52:54;16.02;;;11.27;;
75061;SDS011;63641;46.526;24.612;2023-01-15T16:58:19;16.80;;;12.15;;
75061;SDS011;63641;46.526;24.612;2023-01-15T17:00:57;12.13;;;9.80;;
75061;SDS011;63641;46.526;24.612;2023-01-15T17:03:24;14.00;;;9.82;;
75061;SDS011;63641;46.526;24.612;2023-01-15T17:05:53;14.27;;;10.82;;
75061;SDS011;63641;46.526;24.612;2023-01-15T17:08:30;15.52;;;11.73;;